createdAt,value
2024-03-14T00:00:46.545Z,7.20
2024-03-14T00:05:56.997Z,7.97
2024-03-14T00:08:25.179Z,5.83
2024-03-14T00:10:55.320Z,7.20
2024-03-14T00:13:24.488Z,7.23
2024-03-14T00:15:52.701Z,6.60
2024-03-14T00:18:20.957Z,10.13
2024-03-14T00:20:49.189Z,6.43
2024-03-14T00:23:17.487Z,7.33
2024-03-14T00:25:46.202Z,6.90
2024-03-14T00:28:14.490Z,9.07
2024-03-14T00:30:45.101Z,7.30
2024-03-14T00:33:13.399Z,8.13
2024-03-14T00:35:42.132Z,8.23
2024-03-14T00:38:12.700Z,5.60
2024-03-14T00:40:40.862Z,6.30
2024-03-14T00:43:09.154Z,6.03
2024-03-14T00:45:37.832Z,6.70
2024-03-14T00:48:06.829Z,11.43
2024-03-14T00:50:37.863Z,8.70
2024-03-14T00:53:07.322Z,8.10
2024-03-14T00:55:42.572Z,8.93
2024-03-14T00:58:12.032Z,7.70
2024-03-14T01:00:40.330Z,10.80
2024-03-14T01:03:12.570Z,6.63
2024-03-14T01:05:43.078Z,8.50
2024-03-14T01:08:11.918Z,10.80
2024-03-14T01:10:40.214Z,8.70
2024-03-14T01:13:15.468Z,11.00
2024-03-14T01:15:46.160Z,11.30
2024-03-14T01:18:14.352Z,6.57
2024-03-14T01:20:42.523Z,7.53
2024-03-14T01:23:10.895Z,9.17
2024-03-14T01:25:39.009Z,7.20
2024-03-14T01:28:08.528Z,5.60
2024-03-14T01:30:37.539Z,7.50
2024-03-14T01:33:09.185Z,6.73
2024-03-14T01:35:39.790Z,9.17
2024-03-14T01:38:10.509Z,8.43
2024-03-14T01:40:38.622Z,9.00
2024-03-14T01:43:06.893Z,8.73
2024-03-14T01:45:35.225Z,6.13
2024-03-14T01:48:03.492Z,8.67
2024-03-14T01:50:32.772Z,10.30
2024-03-14T01:53:00.902Z,8.30
2024-03-14T01:55:29.624Z,8.20
2024-03-14T01:57:59.566Z,7.10
2024-03-14T02:00:30.425Z,10.17
2024-03-14T02:02:58.714Z,8.13
2024-03-14T02:05:27.500Z,10.37
2024-03-14T02:07:59.904Z,8.73
2024-03-14T02:10:29.535Z,7.37
2024-03-14T02:12:57.709Z,9.43
2024-03-14T02:15:39.839Z,7.63
2024-03-14T02:18:11.002Z,9.13
2024-03-14T02:20:41.011Z,8.70
2024-03-14T02:23:09.191Z,7.90
2024-03-14T02:25:39.758Z,10.43
2024-03-14T02:28:55.718Z,9.67
2024-03-14T02:31:25.273Z,6.77
2024-03-14T02:33:54.746Z,6.97
2024-03-14T02:36:25.547Z,8.80
2024-03-14T02:38:56.666Z,7.87
2024-03-14T02:41:25.505Z,8.87
2024-03-14T02:43:56.102Z,9.43
2024-03-14T02:46:24.247Z,9.97
2024-03-14T02:48:52.397Z,7.17
2024-03-14T02:51:20.784Z,6.53
2024-03-14T02:53:50.979Z,11.23
2024-03-14T02:56:19.424Z,8.60
2024-03-14T02:58:47.853Z,8.27
2024-03-14T03:01:15.992Z,8.43
2024-03-14T03:03:45.183Z,10.17
2024-03-14T03:06:14.258Z,9.97
2024-03-14T03:08:44.177Z,6.80
2024-03-14T03:11:13.227Z,8.97
2024-03-14T03:13:41.617Z,7.10
2024-03-14T03:16:12.822Z,9.93
2024-03-14T03:18:43.573Z,7.17
2024-03-14T03:21:14.223Z,5.80
2024-03-14T03:23:41.568Z,10.27
2024-03-14T03:26:10.166Z,7.67
2024-03-14T03:28:37.340Z,6.47
2024-03-14T03:31:10.034Z,7.07
2024-03-14T03:33:38.280Z,7.50
2024-03-14T03:36:06.770Z,5.10
2024-03-14T03:38:34.379Z,7.30
2024-03-14T03:41:03.767Z,9.57
2024-03-14T03:43:35.665Z,7.33
2024-03-14T03:46:07.941Z,6.20
2024-03-14T03:48:36.065Z,5.70
2024-03-14T03:51:05.197Z,6.60
2024-03-14T03:53:33.451Z,7.07
2024-03-14T03:56:04.792Z,9.10
2024-03-14T03:58:33.726Z,8.73
2024-03-14T04:01:08.013Z,6.47
2024-03-14T04:03:36.196Z,4.57
2024-03-14T04:06:03.610Z,4.83
2024-03-14T04:08:34.092Z,7.70
2024-03-14T04:11:04.148Z,9.50
2024-03-14T04:13:32.957Z,6.93
2024-03-14T04:16:04.940Z,5.70
2024-03-14T04:18:33.442Z,6.40
2024-03-14T04:21:01.628Z,6.83
2024-03-14T04:23:32.204Z,7.60
2024-03-14T04:26:04.855Z,6.50
2024-03-14T04:28:34.815Z,7.87
2024-03-14T04:31:05.667Z,5.70
2024-03-14T04:33:35.084Z,6.20
2024-03-14T04:36:04.406Z,8.83
2024-03-14T04:38:33.410Z,6.70
2024-03-14T04:41:15.585Z,5.70
2024-03-14T04:43:44.652Z,6.60
2024-03-14T04:46:12.917Z,9.93
2024-03-14T04:48:42.508Z,6.90
2024-03-14T04:51:13.769Z,5.47
2024-03-14T04:53:42.562Z,6.37
2024-03-14T04:56:10.923Z,5.97
2024-03-14T04:58:39.794Z,7.60
2024-03-14T05:01:11.281Z,7.20
2024-03-14T05:03:46.951Z,8.50
2024-03-14T05:06:17.739Z,7.50
2024-03-14T05:08:46.638Z,4.87
2024-03-14T05:11:16.878Z,7.30
2024-03-14T05:13:45.519Z,5.87
2024-03-14T05:16:13.914Z,10.70
2024-03-14T05:18:47.207Z,10.70
2024-03-14T05:21:16.558Z,8.20
2024-03-14T05:23:48.390Z,8.17
2024-03-14T05:26:16.499Z,7.70
2024-03-14T05:28:47.448Z,9.50
2024-03-14T05:31:17.972Z,7.97
2024-03-14T05:33:46.412Z,12.10
2024-03-14T05:36:14.572Z,9.53
2024-03-14T05:38:42.927Z,8.47
2024-03-14T05:41:11.102Z,9.93
2024-03-14T05:43:39.377Z,11.17
2024-03-14T05:46:15.997Z,12.50
2024-03-14T05:48:44.244Z,13.50
2024-03-14T05:51:12.623Z,9.63
2024-03-14T05:53:41.067Z,9.57
2024-03-14T05:56:10.678Z,12.77
2024-03-14T05:58:39.151Z,11.30
2024-03-14T06:01:08.297Z,14.10
2024-03-14T06:03:37.146Z,10.83
2024-03-14T06:06:05.971Z,11.43
2024-03-14T06:08:34.079Z,12.73
2024-03-14T06:11:02.244Z,9.97
2024-03-14T06:13:30.414Z,11.37
2024-03-14T06:16:01.057Z,12.10
2024-03-14T06:18:36.549Z,10.30
2024-03-14T06:21:06.252Z,9.60
2024-03-14T06:23:34.515Z,12.20
2024-03-14T06:26:03.043Z,11.80
2024-03-14T06:28:31.469Z,10.13
2024-03-14T06:31:00.399Z,10.03
2024-03-14T06:33:32.005Z,8.33
2024-03-14T06:36:00.206Z,9.23
2024-03-14T06:38:28.397Z,11.87
2024-03-14T06:40:56.514Z,8.37
2024-03-14T06:43:25.556Z,10.70
2024-03-14T06:45:54.482Z,13.13
2024-03-14T06:48:23.050Z,9.80
2024-03-14T06:50:51.211Z,10.90
2024-03-14T06:53:19.937Z,15.50
2024-03-14T06:55:48.107Z,14.47
2024-03-14T06:58:17.729Z,8.07
2024-03-14T07:00:48.296Z,9.83
2024-03-14T07:03:17.568Z,10.77
2024-03-14T07:05:45.683Z,9.13
2024-03-14T07:08:16.438Z,9.83
2024-03-14T07:10:44.585Z,9.53
2024-03-14T07:13:13.414Z,13.27
2024-03-14T07:15:44.947Z,16.17
2024-03-14T07:18:13.673Z,9.30
2024-03-14T07:20:44.544Z,10.27
2024-03-14T07:23:12.699Z,9.47
2024-03-14T07:25:43.772Z,9.30
2024-03-14T07:28:13.855Z,8.00
2024-03-14T07:30:42.372Z,10.30
2024-03-14T07:33:13.167Z,7.40
2024-03-14T07:35:46.013Z,9.40
2024-03-14T07:38:14.339Z,11.07
2024-03-14T07:40:44.342Z,8.93
2024-03-14T07:43:13.865Z,8.00
2024-03-14T07:45:42.585Z,10.77
2024-03-14T07:48:13.638Z,9.63
2024-03-14T07:50:42.323Z,6.07
2024-03-14T07:53:12.597Z,12.10
2024-03-14T07:55:40.781Z,9.00
2024-03-14T07:58:09.487Z,8.77
2024-03-14T08:00:38.266Z,10.47
2024-03-14T08:03:08.960Z,8.50
2024-03-14T08:05:40.888Z,11.57
2024-03-14T08:08:15.367Z,8.77
2024-03-14T08:10:50.521Z,7.67
2024-03-14T08:13:25.494Z,7.80
2024-03-14T08:16:00.636Z,12.60
2024-03-14T08:18:31.416Z,7.80
2024-03-14T08:21:00.097Z,7.07
2024-03-14T08:23:36.465Z,6.47
2024-03-14T08:26:04.647Z,6.10
2024-03-14T08:28:32.758Z,8.23
2024-03-14T08:31:02.165Z,7.47
2024-03-14T08:33:30.476Z,5.53
2024-03-14T08:35:59.425Z,7.00
2024-03-14T08:38:30.138Z,6.53
2024-03-14T08:41:01.022Z,6.63
2024-03-14T08:43:29.127Z,4.63
2024-03-14T08:45:57.381Z,6.53
2024-03-14T08:48:28.397Z,5.67
2024-03-14T08:50:58.448Z,5.20
2024-03-14T08:53:31.471Z,6.40
2024-03-14T08:56:02.225Z,7.83
2024-03-14T08:58:31.165Z,7.93
2024-03-14T09:01:00.381Z,5.47
2024-03-14T09:03:31.512Z,5.60
2024-03-14T09:05:59.940Z,4.83
2024-03-14T09:08:28.093Z,5.07
2024-03-14T09:10:56.489Z,7.03
2024-03-14T09:13:26.707Z,5.13
2024-03-14T09:15:56.131Z,5.10
2024-03-14T09:18:27.115Z,6.10
2024-03-14T09:20:56.687Z,4.80
2024-03-14T09:23:28.318Z,5.70
2024-03-14T09:25:58.279Z,6.30
2024-03-14T09:28:35.417Z,5.60
2024-03-14T09:31:03.522Z,5.20
2024-03-14T09:33:33.088Z,6.67
2024-03-14T09:36:02.672Z,4.37
2024-03-14T09:38:30.994Z,5.27
2024-03-14T09:41:05.645Z,4.53
2024-03-14T09:43:41.309Z,4.70
2024-03-14T09:46:09.740Z,4.93
2024-03-14T09:48:41.133Z,6.57
2024-03-14T09:51:11.677Z,8.20
2024-03-14T09:53:42.252Z,6.03
2024-03-14T09:56:10.442Z,10.03
2024-03-14T09:58:39.072Z,5.37
2024-03-14T10:01:10.946Z,5.70
2024-03-14T10:03:41.988Z,5.77
2024-03-14T10:06:17.072Z,4.07
2024-03-14T10:08:51.615Z,4.70
2024-03-14T10:11:26.146Z,5.50
2024-03-14T10:13:55.876Z,4.70
2024-03-14T10:16:24.438Z,5.97
2024-03-14T10:18:53.045Z,4.97
2024-03-14T10:21:27.351Z,5.40
2024-03-14T10:23:55.504Z,3.33
2024-03-14T10:26:23.701Z,4.50
2024-03-14T10:28:52.090Z,3.60
2024-03-14T10:31:23.096Z,4.83
2024-03-14T10:33:51.796Z,3.87
2024-03-14T10:36:20.118Z,7.33
2024-03-14T10:38:54.819Z,8.73
2024-03-14T10:41:26.515Z,4.80
2024-03-14T10:43:56.030Z,4.87
2024-03-14T10:46:26.631Z,5.00
2024-03-14T10:48:55.180Z,5.23
2024-03-14T10:51:23.630Z,4.47
2024-03-14T10:53:56.494Z,5.90
2024-03-14T10:56:25.346Z,4.33
2024-03-14T10:58:55.711Z,5.03
2024-03-14T11:01:24.993Z,4.93
2024-03-14T11:03:54.083Z,6.47
2024-03-14T11:06:22.320Z,5.40
2024-03-14T11:08:53.026Z,5.43
2024-03-14T11:11:21.253Z,4.10
2024-03-14T11:13:51.239Z,4.90
2024-03-14T11:16:19.620Z,6.00
2024-03-14T11:18:54.107Z,2.90
2024-03-14T11:21:34.547Z,4.33
2024-03-14T11:24:06.827Z,5.33
2024-03-14T11:26:35.953Z,5.30
2024-03-14T11:29:04.854Z,5.33
2024-03-14T11:31:42.562Z,4.37
2024-03-14T11:34:16.262Z,5.77
2024-03-14T11:36:49.872Z,4.33
2024-03-14T11:39:24.547Z,2.93
2024-03-14T11:41:57.787Z,4.00
2024-03-14T11:44:31.426Z,7.83
2024-03-14T11:47:02.613Z,4.33
2024-03-14T11:49:35.032Z,3.80
2024-03-14T11:52:03.293Z,4.80
2024-03-14T11:54:33.098Z,5.40
2024-03-14T11:57:01.442Z,5.77
2024-03-14T11:59:30.857Z,3.50
2024-03-14T12:02:01.850Z,4.80
2024-03-14T12:04:31.995Z,4.60
2024-03-14T12:07:00.932Z,5.40
2024-03-14T12:09:32.298Z,3.80
2024-03-14T12:12:02.835Z,5.20
2024-03-14T12:14:31.036Z,3.73
2024-03-14T12:17:00.823Z,3.53
2024-03-14T12:19:29.002Z,3.73
2024-03-14T12:22:01.333Z,7.43
2024-03-14T12:24:29.764Z,3.20
2024-03-14T12:26:58.656Z,3.60
2024-03-14T12:29:34.514Z,7.30
2024-03-14T12:32:04.516Z,3.80
2024-03-14T12:34:42.931Z,3.30
2024-03-14T12:37:13.755Z,4.80
2024-03-14T12:39:48.126Z,5.00
2024-03-14T12:42:16.728Z,3.10
2024-03-14T12:44:47.252Z,7.57
2024-03-14T12:47:15.389Z,2.63
2024-03-14T12:49:45.977Z,3.63
2024-03-14T12:52:22.348Z,4.20
2024-03-14T12:54:50.722Z,3.60
2024-03-14T12:57:21.279Z,5.07
2024-03-14T12:59:54.349Z,2.27
2024-03-14T13:02:22.888Z,2.67
2024-03-14T13:04:51.603Z,5.33
2024-03-14T13:07:20.706Z,4.73
2024-03-14T13:10:13.481Z,3.57
2024-03-14T13:12:42.535Z,2.43
2024-03-14T13:15:15.513Z,2.40
2024-03-14T13:17:50.908Z,3.90
2024-03-14T13:20:19.910Z,4.53
2024-03-14T13:22:49.239Z,4.50
2024-03-14T13:25:20.387Z,3.10
2024-03-14T13:27:49.444Z,3.43
2024-03-14T13:30:20.786Z,3.30
2024-03-14T13:32:52.877Z,6.20
2024-03-14T13:35:26.412Z,2.40
2024-03-14T13:37:58.422Z,2.50
2024-03-14T13:40:27.886Z,2.17
2024-03-14T13:42:56.192Z,3.87
2024-03-14T13:45:24.457Z,1.93
2024-03-14T13:47:52.843Z,3.53
2024-03-14T13:50:26.646Z,1.87
2024-03-14T13:52:58.725Z,2.00
2024-03-14T13:55:29.967Z,1.93
2024-03-14T13:57:59.290Z,1.93
2024-03-14T14:00:31.441Z,2.40
2024-03-14T14:02:59.700Z,5.43
2024-03-14T14:05:27.959Z,9.83
2024-03-14T14:08:01.432Z,2.13
2024-03-14T14:10:29.814Z,3.07
2024-03-14T14:13:00.128Z,1.80
2024-03-14T14:15:30.387Z,2.30
2024-03-14T14:17:58.703Z,2.70
2024-03-14T14:20:32.503Z,1.87
2024-03-14T14:23:03.359Z,4.93
2024-03-14T14:25:31.738Z,2.97
2024-03-14T14:28:01.529Z,3.97
2024-03-14T14:30:33.906Z,2.90
2024-03-14T14:33:05.067Z,4.03
2024-03-14T14:35:33.439Z,2.10
2024-03-14T14:38:14.424Z,3.93
2024-03-14T14:40:50.099Z,2.67
2024-03-14T14:43:18.619Z,2.70
2024-03-14T14:45:49.496Z,3.13
2024-03-14T14:48:17.965Z,3.57
2024-03-14T14:50:46.251Z,3.53
2024-03-14T14:53:17.998Z,3.40
2024-03-14T14:55:47.070Z,2.93
2024-03-14T14:58:16.571Z,4.00
2024-03-14T15:00:45.781Z,2.13
2024-03-14T15:03:14.178Z,3.10
2024-03-14T15:05:45.425Z,2.37
2024-03-14T15:08:14.201Z,3.83
2024-03-14T15:10:45.752Z,2.87
2024-03-14T15:13:14.102Z,4.43
2024-03-14T15:15:42.666Z,3.13
2024-03-14T15:18:11.169Z,2.57
2024-03-14T15:20:41.329Z,4.60
2024-03-14T15:23:11.696Z,2.80
2024-03-14T15:25:40.662Z,6.10
2024-03-14T15:28:13.772Z,2.17
2024-03-14T15:30:43.759Z,2.20
2024-03-14T15:33:14.791Z,5.83
2024-03-14T15:35:44.192Z,3.80
2024-03-14T15:38:12.583Z,3.20
2024-03-14T15:40:43.227Z,3.77
2024-03-14T15:43:11.379Z,2.13
2024-03-14T15:45:42.309Z,3.30
2024-03-14T15:48:10.748Z,2.37
2024-03-14T15:50:39.584Z,3.07
2024-03-14T15:53:10.345Z,3.17
2024-03-14T15:55:45.700Z,3.40
2024-03-14T15:58:15.341Z,3.00
2024-03-14T16:00:43.754Z,4.80
2024-03-14T16:03:11.930Z,3.17
2024-03-14T16:05:40.215Z,2.80
2024-03-14T16:08:12.164Z,3.10
2024-03-14T16:10:47.044Z,2.10
2024-03-14T16:13:15.768Z,2.33
2024-03-14T16:15:44.932Z,2.00
2024-03-14T16:18:18.764Z,5.13
2024-03-14T16:20:57.438Z,5.97
2024-03-14T16:23:28.874Z,2.43
2024-03-14T16:25:59.413Z,4.60
2024-03-14T16:28:27.579Z,3.43
2024-03-14T16:30:55.734Z,8.77
2024-03-14T16:33:24.313Z,5.10
2024-03-14T16:35:56.245Z,2.80
2024-03-14T16:38:32.612Z,3.93
2024-03-14T16:41:02.651Z,5.57
2024-03-14T16:43:34.849Z,2.07
2024-03-14T16:46:02.966Z,4.20
2024-03-14T16:48:31.766Z,4.13
2024-03-14T16:51:02.391Z,2.30
2024-03-14T16:53:31.455Z,2.23
2024-03-14T16:55:59.585Z,3.33
2024-03-14T16:58:30.769Z,5.43
2024-03-14T17:01:00.624Z,4.17
2024-03-14T17:03:29.023Z,4.03
2024-03-14T17:05:58.485Z,3.00
2024-03-14T17:08:29.747Z,2.13
2024-03-14T17:10:58.949Z,4.50
2024-03-14T17:13:28.565Z,4.10
2024-03-14T17:15:59.157Z,2.77
2024-03-14T17:18:28.287Z,3.80
2024-03-14T17:20:59.568Z,3.80
2024-03-14T17:23:28.301Z,5.00
2024-03-14T17:25:56.862Z,5.97
2024-03-14T17:28:26.006Z,4.60
2024-03-14T17:30:55.012Z,5.80
2024-03-14T17:33:23.389Z,5.97
2024-03-14T17:35:52.016Z,2.97
2024-03-14T17:38:28.765Z,7.83
2024-03-14T17:40:56.914Z,10.33
2024-03-14T17:43:31.911Z,8.27
2024-03-14T17:46:03.924Z,5.17
2024-03-14T17:51:01.528Z,3.17
2024-03-14T17:53:29.895Z,5.33
2024-03-14T17:56:00.021Z,3.77
2024-03-14T17:58:28.268Z,4.20
2024-03-14T18:00:56.526Z,6.23
2024-03-14T18:03:24.708Z,3.17
2024-03-14T18:05:52.940Z,5.77
2024-03-14T18:08:21.104Z,4.00
2024-03-14T18:10:57.872Z,4.33
2024-03-14T18:13:33.045Z,8.40
2024-03-14T18:16:03.700Z,3.93
2024-03-14T18:18:32.153Z,3.13
2024-03-14T18:21:00.405Z,1.83
2024-03-14T18:23:29.039Z,2.50
2024-03-14T18:25:57.682Z,4.27
2024-03-14T18:28:25.750Z,4.60
2024-03-14T18:30:53.923Z,3.30
2024-03-14T18:33:24.534Z,4.37
2024-03-14T18:35:52.697Z,3.63
2024-03-14T18:38:20.976Z,5.73
2024-03-14T18:40:50.554Z,5.33
2024-03-14T18:43:23.356Z,5.80
2024-03-14T18:45:51.527Z,3.50
2024-03-14T18:48:22.458Z,6.53
2024-03-14T18:50:53.565Z,5.73
2024-03-14T18:53:31.046Z,7.63
2024-03-14T18:56:02.859Z,2.50
2024-03-14T18:58:34.273Z,3.47
2024-03-14T19:01:07.732Z,2.33
2024-03-14T19:03:39.098Z,2.37
2024-03-14T19:06:08.565Z,2.07
2024-03-14T19:08:36.952Z,4.13
2024-03-14T19:11:06.872Z,2.70
2024-03-14T19:13:37.837Z,4.60
2024-03-14T19:16:08.514Z,4.90
2024-03-14T19:18:36.715Z,3.67
2024-03-14T19:21:05.812Z,2.53
2024-03-14T19:23:37.427Z,2.60
2024-03-14T19:26:08.214Z,2.50
2024-03-14T19:28:36.960Z,5.27
2024-03-14T19:31:06.658Z,3.07
2024-03-14T19:33:44.772Z,3.43
2024-03-14T19:36:12.909Z,2.50
2024-03-14T19:38:41.095Z,2.70
2024-03-14T19:41:09.322Z,3.10
2024-03-14T19:43:37.463Z,3.50
2024-03-14T19:46:05.845Z,4.40
2024-03-14T19:48:34.019Z,5.03
2024-03-14T19:51:04.865Z,5.57
2024-03-14T19:53:35.817Z,4.90
2024-03-14T19:56:04.259Z,3.60
2024-03-14T19:58:32.821Z,2.23
2024-03-14T20:01:01.850Z,1.90
2024-03-14T20:03:30.341Z,2.70
2024-03-14T20:05:59.870Z,4.60
2024-03-14T20:08:28.938Z,3.30
2024-03-14T20:10:57.035Z,3.00
2024-03-14T20:13:35.193Z,4.10
2024-03-14T20:16:03.635Z,2.83
2024-03-14T20:18:31.837Z,4.50
2024-03-14T20:21:00.019Z,4.70
2024-03-14T20:23:30.802Z,2.53
2024-03-14T20:26:01.583Z,9.20
2024-03-14T20:28:30.385Z,4.30
2024-03-14T20:31:00.128Z,2.53
2024-03-14T20:33:28.831Z,1.90
2024-03-14T20:35:59.320Z,6.60
2024-03-14T20:38:30.342Z,4.53
2024-03-14T20:41:03.782Z,3.70
2024-03-14T20:43:33.324Z,6.17
2024-03-14T20:46:06.375Z,3.47
2024-03-14T20:48:40.381Z,9.10
2024-03-14T20:51:08.791Z,3.03
2024-03-14T20:53:36.944Z,3.80
2024-03-14T20:56:08.414Z,7.53
2024-03-14T20:58:37.033Z,4.87
2024-03-14T21:01:08.699Z,3.70
2024-03-14T21:03:37.074Z,4.20
2024-03-14T21:06:05.803Z,4.00
2024-03-14T21:08:34.131Z,4.13
2024-03-14T21:11:03.322Z,2.77
2024-03-14T21:13:34.040Z,2.93
2024-03-14T21:16:02.373Z,3.20
2024-03-14T21:18:32.966Z,3.50
2024-03-14T21:21:05.355Z,2.93
2024-03-14T21:23:34.261Z,4.70
2024-03-14T21:26:02.584Z,5.53
2024-03-14T21:28:30.798Z,2.77
2024-03-14T21:31:01.654Z,4.40
2024-03-14T21:33:29.872Z,3.30
2024-03-14T21:35:58.153Z,4.50
2024-03-14T21:38:26.784Z,4.00
2024-03-14T21:40:58.275Z,6.83
2024-03-14T21:43:26.360Z,3.50
2024-03-14T21:45:57.010Z,3.97
2024-03-14T21:48:27.601Z,6.50
2024-03-14T21:50:58.269Z,3.57
2024-03-14T21:53:26.365Z,5.53
2024-03-14T21:56:02.428Z,3.23
2024-03-14T21:58:37.696Z,3.53
2024-03-14T22:01:11.512Z,3.87
2024-03-14T22:03:41.286Z,3.47
2024-03-14T22:06:10.232Z,3.93
2024-03-14T22:08:38.450Z,4.47
2024-03-14T22:11:12.885Z,6.97
2024-03-14T22:13:44.365Z,4.97
2024-03-14T22:16:12.698Z,3.50
2024-03-14T22:18:43.418Z,3.53
2024-03-14T22:21:12.229Z,3.07
2024-03-14T22:23:40.655Z,3.53
2024-03-14T22:26:11.164Z,2.77
2024-03-14T22:28:39.250Z,2.80
2024-03-14T22:31:12.637Z,2.93
2024-03-14T22:33:42.179Z,6.50
2024-03-14T22:36:13.168Z,3.67
2024-03-14T22:38:43.714Z,4.00
2024-03-14T22:41:12.175Z,5.10
2024-03-14T22:43:40.297Z,5.20
2024-03-14T22:46:09.485Z,2.57
2024-03-14T22:48:37.667Z,5.80
2024-03-14T22:51:14.196Z,6.07
2024-03-14T22:53:46.000Z,2.93
2024-03-14T22:56:14.952Z,3.10
2024-03-14T22:58:46.851Z,6.70
2024-03-14T23:01:15.086Z,3.67
2024-03-14T23:03:46.011Z,2.63
2024-03-14T23:06:17.749Z,4.50
2024-03-14T23:08:49.457Z,3.80
2024-03-14T23:11:21.455Z,8.73
2024-03-14T23:13:49.613Z,3.73
2024-03-14T23:16:18.182Z,4.43
2024-03-14T23:18:47.456Z,4.27
2024-03-14T23:21:15.621Z,7.63
2024-03-14T23:23:45.950Z,4.07
2024-03-14T23:26:22.182Z,4.27
2024-03-14T23:28:53.673Z,4.00
2024-03-14T23:31:21.816Z,3.40
2024-03-14T23:33:54.195Z,3.50
2024-03-14T23:36:24.919Z,7.67
2024-03-14T23:38:55.277Z,3.90
2024-03-14T23:41:25.873Z,3.20
2024-03-14T23:43:54.972Z,4.63
2024-03-14T23:46:24.386Z,7.77
2024-03-14T23:48:56.473Z,3.60
2024-03-14T23:51:34.237Z,5.13
2024-03-14T23:54:03.904Z,3.73
2024-03-14T23:56:32.406Z,4.10
2024-03-14T23:59:01.421Z,3.70
